sensor_id;sensor_type;location;lat;lon;timestamp;temperature;humidity
47252;DHT22;32991;51.374;11.586;2022-09-09T00:02:19;14.50;99.90
47252;DHT22;32991;51.374;11.586;2022-09-09T00:04:57;14.50;99.90
47252;DHT22;32991;51.374;11.586;2022-09-09T00:07:50;14.50;99.90
47252;DHT22;32991;51.374;11.586;2022-09-09T00:10:37;14.50;99.90
47252;DHT22;32991;51.374;11.586;2022-09-09T00:13:30;14.50;99.90
47252;DHT22;32991;51.374;11.586;2022-09-09T00:16:07;14.50;99.90
47252;DHT22;32991;51.374;11.586;2022-09-09T00:21:16;14.50;99.90
47252;DHT22;32991;51.374;11.586;2022-09-09T00:23:48;14.50;99.90
47252;DHT22;32991;51.374;11.586;2022-09-09T00:26:36;14.50;99.90
47252;DHT22;32991;51.374;11.586;2022-09-09T00:29:15;14.50;99.90
47252;DHT22;32991;51.374;11.586;2022-09-09T00:31:46;14.60;99.90
47252;DHT22;32991;51.374;11.586;2022-09-09T00:34:18;14.50;99.90
47252;DHT22;32991;51.374;11.586;2022-09-09T00:36:46;14.60;99.90
47252;DHT22;32991;51.374;11.586;2022-09-09T00:47:55;14.60;99.90
47252;DHT22;32991;51.374;11.586;2022-09-09T00:50:53;14.60;99.90
47252;DHT22;32991;51.374;11.586;2022-09-09T00:56:37;14.50;99.90
47252;DHT22;32991;51.374;11.586;2022-09-09T01:01:46;14.60;99.90
47252;DHT22;32991;51.374;11.586;2022-09-09T01:04:18;14.60;99.90
47252;DHT22;32991;51.374;11.586;2022-09-09T01:06:51;14.60;99.90
47252;DHT22;32991;51.374;11.586;2022-09-09T01:09:22;14.60;99.90
47252;DHT22;32991;51.374;11.586;2022-09-09T01:12:12;14.60;99.90
47252;DHT22;32991;51.374;11.586;2022-09-09T01:14:47;14.80;99.90
47252;DHT22;32991;51.374;11.586;2022-09-09T01:23:16;15.00;99.90
47252;DHT22;32991;51.374;11.586;2022-09-09T01:26:16;15.00;99.90
47252;DHT22;32991;51.374;11.586;2022-09-09T01:28:47;14.90;99.90
47252;DHT22;32991;51.374;11.586;2022-09-09T01:31:23;14.90;99.90
47252;DHT22;32991;51.374;11.586;2022-09-09T01:33:53;14.80;99.90
47252;DHT22;32991;51.374;11.586;2022-09-09T01:36:29;14.80;99.90
47252;DHT22;32991;51.374;11.586;2022-09-09T01:38:59;14.70;99.90
47252;DHT22;32991;51.374;11.586;2022-09-09T01:41:27;14.70;99.90
47252;DHT22;32991;51.374;11.586;2022-09-09T01:44:15;14.60;99.90
47252;DHT22;32991;51.374;11.586;2022-09-09T01:46:44;14.60;99.90
47252;DHT22;32991;51.374;11.586;2022-09-09T01:49:17;14.60;99.90
47252;DHT22;32991;51.374;11.586;2022-09-09T01:51:48;14.50;99.90
47252;DHT22;32991;51.374;11.586;2022-09-09T01:54:17;14.50;99.90
47252;DHT22;32991;51.374;11.586;2022-09-09T02:00:08;14.40;99.90
47252;DHT22;32991;51.374;11.586;2022-09-09T02:05:45;14.20;99.90
47252;DHT22;32991;51.374;11.586;2022-09-09T02:08:26;14.10;99.90
47252;DHT22;32991;51.374;11.586;2022-09-09T02:11:27;14.00;99.90
47252;DHT22;32991;51.374;11.586;2022-09-09T02:14:12;14.00;99.90
47252;DHT22;32991;51.374;11.586;2022-09-09T02:16:56;13.90;99.90
47252;DHT22;32991;51.374;11.586;2022-09-09T02:19:34;13.80;99.90
47252;DHT22;32991;51.374;11.586;2022-09-09T02:22:09;13.80;99.90
47252;DHT22;32991;51.374;11.586;2022-09-09T02:24:38;13.80;99.90
47252;DHT22;32991;51.374;11.586;2022-09-09T02:27:14;13.70;99.90
47252;DHT22;32991;51.374;11.586;2022-09-09T02:29:44;13.70;99.90
47252;DHT22;32991;51.374;11.586;2022-09-09T02:32:20;13.70;99.90
47252;DHT22;32991;51.374;11.586;2022-09-09T02:34:57;13.70;99.90
47252;DHT22;32991;51.374;11.586;2022-09-09T02:37:31;13.70;99.90
47252;DHT22;32991;51.374;11.586;2022-09-09T02:40:01;13.70;99.90
47252;DHT22;32991;51.374;11.586;2022-09-09T02:42:30;13.60;99.90
47252;DHT22;32991;51.374;11.586;2022-09-09T02:44:59;13.60;99.90
47252;DHT22;32991;51.374;11.586;2022-09-09T02:47:30;13.50;99.90
47252;DHT22;32991;51.374;11.586;2022-09-09T02:50:16;13.50;99.90
47252;DHT22;32991;51.374;11.586;2022-09-09T02:52:59;13.50;99.90
47252;DHT22;32991;51.374;11.586;2022-09-09T02:55:56;13.40;99.90
47252;DHT22;32991;51.374;11.586;2022-09-09T02:58:22;13.30;99.90
47252;DHT22;32991;51.374;11.586;2022-09-09T03:00:56;13.30;99.90
47252;DHT22;32991;51.374;11.586;2022-09-09T03:03:25;13.30;99.90
47252;DHT22;32991;51.374;11.586;2022-09-09T03:05:52;13.30;99.90
47252;DHT22;32991;51.374;11.586;2022-09-09T03:08:19;13.30;99.90
47252;DHT22;32991;51.374;11.586;2022-09-09T03:10:47;13.40;99.90
47252;DHT22;32991;51.374;11.586;2022-09-09T03:13:15;13.50;99.90
47252;DHT22;32991;51.374;11.586;2022-09-09T03:15:43;13.50;99.90
47252;DHT22;32991;51.374;11.586;2022-09-09T03:18:15;13.50;99.90
47252;DHT22;32991;51.374;11.586;2022-09-09T03:20:46;13.50;99.90
47252;DHT22;32991;51.374;11.586;2022-09-09T03:23:16;13.50;99.90
47252;DHT22;32991;51.374;11.586;2022-09-09T03:25:51;13.50;99.90
47252;DHT22;32991;51.374;11.586;2022-09-09T03:28:25;13.40;99.90
47252;DHT22;32991;51.374;11.586;2022-09-09T03:31:00;13.50;99.90
47252;DHT22;32991;51.374;11.586;2022-09-09T03:33:30;13.40;99.90
47252;DHT22;32991;51.374;11.586;2022-09-09T03:35:58;13.30;99.90
47252;DHT22;32991;51.374;11.586;2022-09-09T03:38:25;13.40;99.90
47252;DHT22;32991;51.374;11.586;2022-09-09T03:40:53;13.30;99.90
47252;DHT22;32991;51.374;11.586;2022-09-09T03:43:26;13.30;99.90
47252;DHT22;32991;51.374;11.586;2022-09-09T03:45:53;13.30;99.90
47252;DHT22;32991;51.374;11.586;2022-09-09T03:48:25;13.40;99.90
47252;DHT22;32991;51.374;11.586;2022-09-09T03:50:55;13.30;99.90
47252;DHT22;32991;51.374;11.586;2022-09-09T03:53:28;13.40;99.90
47252;DHT22;32991;51.374;11.586;2022-09-09T03:55:56;13.40;99.90
47252;DHT22;32991;51.374;11.586;2022-09-09T03:58:27;13.40;99.90
47252;DHT22;32991;51.374;11.586;2022-09-09T04:01:05;13.50;99.90
47252;DHT22;32991;51.374;11.586;2022-09-09T04:03:33;13.50;99.90
47252;DHT22;32991;51.374;11.586;2022-09-09T04:06:01;13.40;99.90
47252;DHT22;32991;51.374;11.586;2022-09-09T04:08:30;13.50;99.90
47252;DHT22;32991;51.374;11.586;2022-09-09T04:11:01;13.50;99.90
47252;DHT22;32991;51.374;11.586;2022-09-09T04:13:34;13.50;99.90
47252;DHT22;32991;51.374;11.586;2022-09-09T04:16:02;13.50;99.90
47252;DHT22;32991;51.374;11.586;2022-09-09T04:18:32;13.50;99.90
47252;DHT22;32991;51.374;11.586;2022-09-09T04:20:59;13.50;99.90
47252;DHT22;32991;51.374;11.586;2022-09-09T04:23:28;13.50;99.90
47252;DHT22;32991;51.374;11.586;2022-09-09T04:25:58;13.60;99.90
47252;DHT22;32991;51.374;11.586;2022-09-09T04:28:28;13.60;99.90
47252;DHT22;32991;51.374;11.586;2022-09-09T04:30:57;13.60;99.90
47252;DHT22;32991;51.374;11.586;2022-09-09T04:33:24;13.60;99.90
47252;DHT22;32991;51.374;11.586;2022-09-09T04:35:54;13.60;99.90
47252;DHT22;32991;51.374;11.586;2022-09-09T04:38:23;13.60;99.90
47252;DHT22;32991;51.374;11.586;2022-09-09T04:40:51;13.50;99.90
47252;DHT22;32991;51.374;11.586;2022-09-09T04:43:19;13.50;99.90
47252;DHT22;32991;51.374;11.586;2022-09-09T04:45:48;13.40;99.90
47252;DHT22;32991;51.374;11.586;2022-09-09T04:48:15;13.40;99.90
47252;DHT22;32991;51.374;11.586;2022-09-09T04:50:42;13.40;99.90
47252;DHT22;32991;51.374;11.586;2022-09-09T04:53:11;13.50;99.90
47252;DHT22;32991;51.374;11.586;2022-09-09T04:55:38;13.50;99.90
47252;DHT22;32991;51.374;11.586;2022-09-09T04:58:07;13.60;99.90
47252;DHT22;32991;51.374;11.586;2022-09-09T05:00:35;13.70;99.90
47252;DHT22;32991;51.374;11.586;2022-09-09T05:03:06;13.70;99.90
47252;DHT22;32991;51.374;11.586;2022-09-09T05:05:36;13.70;99.90
47252;DHT22;32991;51.374;11.586;2022-09-09T05:08:07;13.80;99.90
47252;DHT22;32991;51.374;11.586;2022-09-09T05:10:37;13.90;99.90
47252;DHT22;32991;51.374;11.586;2022-09-09T05:13:05;14.00;99.90
47252;DHT22;32991;51.374;11.586;2022-09-09T05:15:33;14.10;99.90
47252;DHT22;32991;51.374;11.586;2022-09-09T05:18:02;14.20;99.90
47252;DHT22;32991;51.374;11.586;2022-09-09T05:20:30;14.40;99.90
47252;DHT22;32991;51.374;11.586;2022-09-09T05:22:58;14.40;99.90
47252;DHT22;32991;51.374;11.586;2022-09-09T05:25:28;14.50;99.90
47252;DHT22;32991;51.374;11.586;2022-09-09T05:27:55;14.50;99.90
47252;DHT22;32991;51.374;11.586;2022-09-09T05:30:22;14.50;99.90
47252;DHT22;32991;51.374;11.586;2022-09-09T05:32:50;14.60;99.90
47252;DHT22;32991;51.374;11.586;2022-09-09T05:35:18;14.60;99.90
47252;DHT22;32991;51.374;11.586;2022-09-09T05:37:45;14.60;99.90
47252;DHT22;32991;51.374;11.586;2022-09-09T05:40:13;14.70;99.90
47252;DHT22;32991;51.374;11.586;2022-09-09T05:42:40;14.60;99.90
47252;DHT22;32991;51.374;11.586;2022-09-09T05:45:08;14.60;99.90
47252;DHT22;32991;51.374;11.586;2022-09-09T05:47:36;14.70;99.90
47252;DHT22;32991;51.374;11.586;2022-09-09T05:50:06;14.70;99.90
47252;DHT22;32991;51.374;11.586;2022-09-09T05:52:34;14.70;99.90
47252;DHT22;32991;51.374;11.586;2022-09-09T05:55:01;14.80;99.90
47252;DHT22;32991;51.374;11.586;2022-09-09T05:57:28;14.90;99.90
47252;DHT22;32991;51.374;11.586;2022-09-09T05:59:55;14.90;99.90
47252;DHT22;32991;51.374;11.586;2022-09-09T06:02:21;15.00;99.90
47252;DHT22;32991;51.374;11.586;2022-09-09T06:04:49;15.10;99.90
47252;DHT22;32991;51.374;11.586;2022-09-09T06:07:16;15.20;99.90
47252;DHT22;32991;51.374;11.586;2022-09-09T06:09:43;15.20;99.90
47252;DHT22;32991;51.374;11.586;2022-09-09T06:12:11;15.30;99.90
47252;DHT22;32991;51.374;11.586;2022-09-09T06:14:38;15.40;99.90
47252;DHT22;32991;51.374;11.586;2022-09-09T06:17:10;15.50;99.90
47252;DHT22;32991;51.374;11.586;2022-09-09T06:19:36;15.60;99.90
47252;DHT22;32991;51.374;11.586;2022-09-09T06:22:03;15.70;99.90
47252;DHT22;32991;51.374;11.586;2022-09-09T06:24:35;15.70;99.90
47252;DHT22;32991;51.374;11.586;2022-09-09T06:27:02;15.80;99.90
47252;DHT22;32991;51.374;11.586;2022-09-09T06:29:33;15.90;99.90
47252;DHT22;32991;51.374;11.586;2022-09-09T06:32:02;16.10;99.90
47252;DHT22;32991;51.374;11.586;2022-09-09T06:34:30;16.20;99.90
47252;DHT22;32991;51.374;11.586;2022-09-09T06:36:57;16.50;99.90
47252;DHT22;32991;51.374;11.586;2022-09-09T06:39:29;16.90;99.90
47252;DHT22;32991;51.374;11.586;2022-09-09T06:41:56;17.40;99.90
47252;DHT22;32991;51.374;11.586;2022-09-09T06:44:47;18.10;99.90
47252;DHT22;32991;51.374;11.586;2022-09-09T06:47:23;18.50;99.90
47252;DHT22;32991;51.374;11.586;2022-09-09T06:49:51;18.50;99.90
47252;DHT22;32991;51.374;11.586;2022-09-09T06:52:18;18.40;99.90
47252;DHT22;32991;51.374;11.586;2022-09-09T06:54:46;18.30;99.90
47252;DHT22;32991;51.374;11.586;2022-09-09T06:57:14;18.30;99.90
47252;DHT22;32991;51.374;11.586;2022-09-09T07:00:03;18.20;99.90
47252;DHT22;32991;51.374;11.586;2022-09-09T07:02:31;18.20;99.90
47252;DHT22;32991;51.374;11.586;2022-09-09T07:04:59;18.20;99.90
47252;DHT22;32991;51.374;11.586;2022-09-09T07:07:26;18.20;99.90
47252;DHT22;32991;51.374;11.586;2022-09-09T07:09:55;18.30;99.90
47252;DHT22;32991;51.374;11.586;2022-09-09T07:12:22;18.30;99.90
47252;DHT22;32991;51.374;11.586;2022-09-09T07:14:58;18.40;99.90
47252;DHT22;32991;51.374;11.586;2022-09-09T07:17:25;19.10;99.90
47252;DHT22;32991;51.374;11.586;2022-09-09T07:19:52;20.60;99.90
47252;DHT22;32991;51.374;11.586;2022-09-09T07:22:20;22.30;99.90
47252;DHT22;32991;51.374;11.586;2022-09-09T07:24:46;23.60;99.90
47252;DHT22;32991;51.374;11.586;2022-09-09T07:27:14;24.50;99.90
47252;DHT22;32991;51.374;11.586;2022-09-09T07:29:42;25.40;99.90
47252;DHT22;32991;51.374;11.586;2022-09-09T07:32:09;26.30;99.90
47252;DHT22;32991;51.374;11.586;2022-09-09T07:34:37;27.00;97.30
47252;DHT22;32991;51.374;11.586;2022-09-09T07:37:04;27.00;95.30
47252;DHT22;32991;51.374;11.586;2022-09-09T07:39:32;27.00;94.60
47252;DHT22;32991;51.374;11.586;2022-09-09T07:41:59;27.70;94.00
47252;DHT22;32991;51.374;11.586;2022-09-09T07:44:26;28.60;92.40
47252;DHT22;32991;51.374;11.586;2022-09-09T07:47:02;29.50;88.30
47252;DHT22;32991;51.374;11.586;2022-09-09T07:49:35;29.70;84.60
47252;DHT22;32991;51.374;11.586;2022-09-09T07:52:03;29.60;81.90
47252;DHT22;32991;51.374;11.586;2022-09-09T07:54:31;29.40;80.70
47252;DHT22;32991;51.374;11.586;2022-09-09T07:57:01;29.40;77.50
47252;DHT22;32991;51.374;11.586;2022-09-09T07:59:33;29.00;78.20
47252;DHT22;32991;51.374;11.586;2022-09-09T08:02:01;28.90;75.90
47252;DHT22;32991;51.374;11.586;2022-09-09T08:04:31;28.80;77.20
47252;DHT22;32991;51.374;11.586;2022-09-09T08:07:00;28.90;76.80
47252;DHT22;32991;51.374;11.586;2022-09-09T08:09:29;28.90;75.10
47252;DHT22;32991;51.374;11.586;2022-09-09T08:12:16;28.50;75.90
47252;DHT22;32991;51.374;11.586;2022-09-09T08:14:46;27.50;76.50
47252;DHT22;32991;51.374;11.586;2022-09-09T08:17:13;26.20;78.20
47252;DHT22;32991;51.374;11.586;2022-09-09T08:19:42;25.30;82.20
47252;DHT22;32991;51.374;11.586;2022-09-09T08:22:14;25.40;84.60
47252;DHT22;32991;51.374;11.586;2022-09-09T08:24:40;26.50;82.20
47252;DHT22;32991;51.374;11.586;2022-09-09T08:27:08;27.50;79.40
47252;DHT22;32991;51.374;11.586;2022-09-09T08:29:37;28.20;76.60
47252;DHT22;32991;51.374;11.586;2022-09-09T08:32:04;28.60;75.70
47252;DHT22;32991;51.374;11.586;2022-09-09T08:34:33;29.10;74.90
47252;DHT22;32991;51.374;11.586;2022-09-09T08:37:04;29.60;73.00
47252;DHT22;32991;51.374;11.586;2022-09-09T08:39:36;29.90;72.00
47252;DHT22;32991;51.374;11.586;2022-09-09T08:42:24;30.30;71.00
47252;DHT22;32991;51.374;11.586;2022-09-09T08:47:39;31.10;69.70
47252;DHT22;32991;51.374;11.586;2022-09-09T08:53:03;31.40;65.80
47252;DHT22;32991;51.374;11.586;2022-09-09T08:55:54;31.50;65.30
47252;DHT22;32991;51.374;11.586;2022-09-09T08:58:31;31.80;64.50
47252;DHT22;32991;51.374;11.586;2022-09-09T09:11:36;31.50;63.40
47252;DHT22;32991;51.374;11.586;2022-09-09T09:14:23;31.60;63.00
47252;DHT22;32991;51.374;11.586;2022-09-09T09:16:58;31.30;62.80
47252;DHT22;32991;51.374;11.586;2022-09-09T09:19:29;29.80;64.50
47252;DHT22;32991;51.374;11.586;2022-09-09T09:27:40;29.20;65.60
47252;DHT22;32991;51.374;11.586;2022-09-09T09:30:17;28.40;67.50
47252;DHT22;32991;51.374;11.586;2022-09-09T09:33:02;27.20;69.80
47252;DHT22;32991;51.374;11.586;2022-09-09T09:35:32;26.00;73.60
47252;DHT22;32991;51.374;11.586;2022-09-09T09:38:21;26.40;74.80
47252;DHT22;32991;51.374;11.586;2022-09-09T09:41:09;27.20;74.00
47252;DHT22;32991;51.374;11.586;2022-09-09T09:43:40;28.10;70.90
47252;DHT22;32991;51.374;11.586;2022-09-09T09:46:24;29.20;68.40
47252;DHT22;32991;51.374;11.586;2022-09-09T09:49:04;30.00;65.90
47252;DHT22;32991;51.374;11.586;2022-09-09T09:51:34;29.70;66.40
47252;DHT22;32991;51.374;11.586;2022-09-09T09:56:41;29.30;67.20
47252;DHT22;32991;51.374;11.586;2022-09-09T09:59:21;29.10;67.20
47252;DHT22;32991;51.374;11.586;2022-09-09T10:02:13;29.20;67.20
47252;DHT22;32991;51.374;11.586;2022-09-09T10:04:41;28.80;67.00
47252;DHT22;32991;51.374;11.586;2022-09-09T10:07:15;29.30;67.20
47252;DHT22;32991;51.374;11.586;2022-09-09T10:09:43;29.20;64.50
47252;DHT22;32991;51.374;11.586;2022-09-09T10:12:41;27.90;65.90
47252;DHT22;32991;51.374;11.586;2022-09-09T10:15:56;26.60;69.60
47252;DHT22;32991;51.374;11.586;2022-09-09T10:19:04;25.30;73.00
47252;DHT22;32991;51.374;11.586;2022-09-09T10:24:22;23.80;78.90
47252;DHT22;32991;51.374;11.586;2022-09-09T10:27:38;24.70;77.90
47252;DHT22;32991;51.374;11.586;2022-09-09T10:32:45;24.60;77.60
47252;DHT22;32991;51.374;11.586;2022-09-09T10:38:05;25.50;75.30
47252;DHT22;32991;51.374;11.586;2022-09-09T10:49:13;24.30;78.70
47252;DHT22;32991;51.374;11.586;2022-09-09T10:52:01;23.80;80.90
47252;DHT22;32991;51.374;11.586;2022-09-09T10:57:36;22.70;83.10
47252;DHT22;32991;51.374;11.586;2022-09-09T11:00:13;22.40;84.30
47252;DHT22;32991;51.374;11.586;2022-09-09T11:02:41;22.50;86.10
47252;DHT22;32991;51.374;11.586;2022-09-09T11:05:41;23.90;83.20
47252;DHT22;32991;51.374;11.586;2022-09-09T11:08:24;25.20;78.20
47252;DHT22;32991;51.374;11.586;2022-09-09T11:11:11;25.40;76.80
47252;DHT22;32991;51.374;11.586;2022-09-09T11:18:47;24.80;80.00
47252;DHT22;32991;51.374;11.586;2022-09-09T11:21:24;25.80;78.30
47252;DHT22;32991;51.374;11.586;2022-09-09T11:23:57;27.20;74.40
47252;DHT22;32991;51.374;11.586;2022-09-09T11:26:31;27.90;72.40
47252;DHT22;32991;51.374;11.586;2022-09-09T11:29:16;28.90;71.10
47252;DHT22;32991;51.374;11.586;2022-09-09T11:32:07;30.00;67.90
47252;DHT22;32991;51.374;11.586;2022-09-09T11:40:24;30.60;63.40
47252;DHT22;32991;51.374;11.586;2022-09-09T11:43:23;29.60;61.80
47252;DHT22;32991;51.374;11.586;2022-09-09T11:45:53;29.00;63.60
47252;DHT22;32991;51.374;11.586;2022-09-09T11:48:35;29.40;64.10
47252;DHT22;32991;51.374;11.586;2022-09-09T11:51:07;29.50;61.60
47252;DHT22;32991;51.374;11.586;2022-09-09T11:53:54;28.50;63.40
47252;DHT22;32991;51.374;11.586;2022-09-09T11:59:17;26.00;66.50
47252;DHT22;32991;51.374;11.586;2022-09-09T12:04:31;26.10;68.20
47252;DHT22;32991;51.374;11.586;2022-09-09T12:07:01;25.90;69.40
47252;DHT22;32991;51.374;11.586;2022-09-09T12:17:21;25.00;71.30
47252;DHT22;32991;51.374;11.586;2022-09-09T12:20:42;24.80;72.10
47252;DHT22;32991;51.374;11.586;2022-09-09T12:25:40;24.20;71.30
47252;DHT22;32991;51.374;11.586;2022-09-09T12:28:18;23.90;71.40
47252;DHT22;32991;51.374;11.586;2022-09-09T12:31:06;23.60;71.90
47252;DHT22;32991;51.374;11.586;2022-09-09T12:33:37;23.50;72.80
47252;DHT22;32991;51.374;11.586;2022-09-09T12:36:11;23.50;73.40
47252;DHT22;32991;51.374;11.586;2022-09-09T12:38:43;23.70;73.40
47252;DHT22;32991;51.374;11.586;2022-09-09T12:41:20;24.00;73.10
47252;DHT22;32991;51.374;11.586;2022-09-09T12:43:47;25.00;72.50
47252;DHT22;32991;51.374;11.586;2022-09-09T12:46:24;26.00;70.20
47252;DHT22;32991;51.374;11.586;2022-09-09T12:48:54;26.30;68.90
47252;DHT22;32991;51.374;11.586;2022-09-09T12:51:32;26.80;68.00
47252;DHT22;32991;51.374;11.586;2022-09-09T12:54:00;28.00;66.70
47252;DHT22;32991;51.374;11.586;2022-09-09T12:56:30;28.90;64.20
47252;DHT22;32991;51.374;11.586;2022-09-09T12:58:58;29.60;62.90
47252;DHT22;32991;51.374;11.586;2022-09-09T13:01:32;30.30;62.30
47252;DHT22;32991;51.374;11.586;2022-09-09T13:04:00;31.00;59.90
47252;DHT22;32991;51.374;11.586;2022-09-09T13:06:29;30.80;58.50
47252;DHT22;32991;51.374;11.586;2022-09-09T13:08:59;30.10;59.30
47252;DHT22;32991;51.374;11.586;2022-09-09T13:11:30;30.20;59.40
47252;DHT22;32991;51.374;11.586;2022-09-09T13:13:58;29.80;59.80
47252;DHT22;32991;51.374;11.586;2022-09-09T13:16:28;29.50;60.70
47252;DHT22;32991;51.374;11.586;2022-09-09T13:19:08;29.90;60.00
47252;DHT22;32991;51.374;11.586;2022-09-09T13:21:38;29.90;59.00
47252;DHT22;32991;51.374;11.586;2022-09-09T13:24:31;29.70;59.80
47252;DHT22;32991;51.374;11.586;2022-09-09T13:27:01;28.80;60.40
47252;DHT22;32991;51.374;11.586;2022-09-09T13:29:30;28.00;62.10
47252;DHT22;32991;51.374;11.586;2022-09-09T13:32:05;28.20;63.60
47252;DHT22;32991;51.374;11.586;2022-09-09T13:34:34;29.10;58.50
47252;DHT22;32991;51.374;11.586;2022-09-09T13:37:25;29.80;56.70
47252;DHT22;32991;51.374;11.586;2022-09-09T13:39:54;29.40;55.60
47252;DHT22;32991;51.374;11.586;2022-09-09T13:42:28;28.90;56.60
47252;DHT22;32991;51.374;11.586;2022-09-09T13:44:56;28.70;57.40
47252;DHT22;32991;51.374;11.586;2022-09-09T13:47:33;29.00;55.90
47252;DHT22;32991;51.374;11.586;2022-09-09T13:50:22;29.10;55.90
47252;DHT22;32991;51.374;11.586;2022-09-09T13:52:51;29.30;55.90
47252;DHT22;32991;51.374;11.586;2022-09-09T13:55:21;29.50;56.20
47252;DHT22;32991;51.374;11.586;2022-09-09T13:57:55;29.80;56.40
47252;DHT22;32991;51.374;11.586;2022-09-09T14:00:23;30.20;55.30
47252;DHT22;32991;51.374;11.586;2022-09-09T14:02:51;30.40;53.80
47252;DHT22;32991;51.374;11.586;2022-09-09T14:05:18;30.30;53.20
47252;DHT22;32991;51.374;11.586;2022-09-09T14:07:45;30.40;52.30
47252;DHT22;32991;51.374;11.586;2022-09-09T14:10:18;30.20;52.10
47252;DHT22;32991;51.374;11.586;2022-09-09T14:12:44;29.90;51.20
47252;DHT22;32991;51.374;11.586;2022-09-09T14:15:13;29.80;52.00
47252;DHT22;32991;51.374;11.586;2022-09-09T14:17:40;29.80;51.80
47252;DHT22;32991;51.374;11.586;2022-09-09T14:20:08;29.80;51.40
47252;DHT22;32991;51.374;11.586;2022-09-09T14:22:36;29.70;51.60
47252;DHT22;32991;51.374;11.586;2022-09-09T14:25:03;29.60;52.00
47252;DHT22;32991;51.374;11.586;2022-09-09T14:27:30;29.70;52.00
47252;DHT22;32991;51.374;11.586;2022-09-09T14:29:57;29.80;51.90
47252;DHT22;32991;51.374;11.586;2022-09-09T14:32:24;29.60;53.30
47252;DHT22;32991;51.374;11.586;2022-09-09T14:34:51;29.40;53.40
47252;DHT22;32991;51.374;11.586;2022-09-09T14:37:18;29.30;53.40
47252;DHT22;32991;51.374;11.586;2022-09-09T14:39:45;29.00;53.30
47252;DHT22;32991;51.374;11.586;2022-09-09T14:42:14;28.90;53.70
47252;DHT22;32991;51.374;11.586;2022-09-09T14:44:41;28.90;53.90
47252;DHT22;32991;51.374;11.586;2022-09-09T14:47:08;28.80;53.50
47252;DHT22;32991;51.374;11.586;2022-09-09T14:49:35;28.70;53.70
47252;DHT22;32991;51.374;11.586;2022-09-09T14:52:03;28.50;52.60
47252;DHT22;32991;51.374;11.586;2022-09-09T14:54:31;28.40;52.20
47252;DHT22;32991;51.374;11.586;2022-09-09T14:56:58;28.30;52.80
47252;DHT22;32991;51.374;11.586;2022-09-09T14:59:25;28.60;53.60
47252;DHT22;32991;51.374;11.586;2022-09-09T15:01:53;28.60;53.30
47252;DHT22;32991;51.374;11.586;2022-09-09T15:04:19;28.40;53.00
47252;DHT22;32991;51.374;11.586;2022-09-09T15:06:46;28.20;53.70
47252;DHT22;32991;51.374;11.586;2022-09-09T15:09:15;27.90;53.50
47252;DHT22;32991;51.374;11.586;2022-09-09T15:11:42;27.80;54.10
47252;DHT22;32991;51.374;11.586;2022-09-09T15:14:10;27.60;54.30
47252;DHT22;32991;51.374;11.586;2022-09-09T15:16:39;27.60;54.80
47252;DHT22;32991;51.374;11.586;2022-09-09T15:19:06;27.70;54.50
47252;DHT22;32991;51.374;11.586;2022-09-09T15:21:35;27.80;54.80
47252;DHT22;32991;51.374;11.586;2022-09-09T15:24:02;27.90;54.10
47252;DHT22;32991;51.374;11.586;2022-09-09T15:26:29;27.80;54.30
47252;DHT22;32991;51.374;11.586;2022-09-09T15:28:56;27.30;54.90
47252;DHT22;32991;51.374;11.586;2022-09-09T15:31:30;27.00;55.50
47252;DHT22;32991;51.374;11.586;2022-09-09T15:33:59;26.90;55.90
47252;DHT22;32991;51.374;11.586;2022-09-09T15:36:31;26.80;56.30
47252;DHT22;32991;51.374;11.586;2022-09-09T15:38:59;26.80;56.00
47252;DHT22;32991;51.374;11.586;2022-09-09T15:41:27;26.50;56.40
47252;DHT22;32991;51.374;11.586;2022-09-09T15:43:55;25.70;57.40
47252;DHT22;32991;51.374;11.586;2022-09-09T15:46:39;24.80;58.80
47252;DHT22;32991;51.374;11.586;2022-09-09T15:49:17;24.20;60.00
47252;DHT22;32991;51.374;11.586;2022-09-09T15:51:46;23.80;60.90
47252;DHT22;32991;51.374;11.586;2022-09-09T15:54:18;23.70;62.50
47252;DHT22;32991;51.374;11.586;2022-09-09T15:56:46;23.60;63.00
47252;DHT22;32991;51.374;11.586;2022-09-09T15:59:15;23.50;63.20
47252;DHT22;32991;51.374;11.586;2022-09-09T16:01:42;23.30;63.70
47252;DHT22;32991;51.374;11.586;2022-09-09T16:04:10;23.10;64.10
47252;DHT22;32991;51.374;11.586;2022-09-09T16:06:37;22.90;64.80
47252;DHT22;32991;51.374;11.586;2022-09-09T16:09:05;22.70;65.60
47252;DHT22;32991;51.374;11.586;2022-09-09T16:11:36;22.40;65.60
47252;DHT22;32991;51.374;11.586;2022-09-09T16:14:03;22.20;66.40
47252;DHT22;32991;51.374;11.586;2022-09-09T16:16:31;22.10;67.00
47252;DHT22;32991;51.374;11.586;2022-09-09T16:19:03;21.90;67.60
47252;DHT22;32991;51.374;11.586;2022-09-09T16:21:42;21.80;67.90
47252;DHT22;32991;51.374;11.586;2022-09-09T16:24:11;21.60;68.10
47252;DHT22;32991;51.374;11.586;2022-09-09T16:26:41;21.50;68.60
47252;DHT22;32991;51.374;11.586;2022-09-09T16:29:14;21.40;69.00
47252;DHT22;32991;51.374;11.586;2022-09-09T16:31:42;21.30;69.00
47252;DHT22;32991;51.374;11.586;2022-09-09T16:34:09;21.20;69.30
47252;DHT22;32991;51.374;11.586;2022-09-09T16:36:38;21.20;70.00
47252;DHT22;32991;51.374;11.586;2022-09-09T16:39:08;21.20;70.30
47252;DHT22;32991;51.374;11.586;2022-09-09T16:41:39;21.10;70.60
47252;DHT22;32991;51.374;11.586;2022-09-09T16:44:08;21.00;71.30
47252;DHT22;32991;51.374;11.586;2022-09-09T16:46:38;20.90;71.70
47252;DHT22;32991;51.374;11.586;2022-09-09T16:49:08;20.80;72.20
47252;DHT22;32991;51.374;11.586;2022-09-09T16:51:44;20.70;72.70
47252;DHT22;32991;51.374;11.586;2022-09-09T16:54:11;20.60;73.20
47252;DHT22;32991;51.374;11.586;2022-09-09T16:56:42;20.60;73.90
47252;DHT22;32991;51.374;11.586;2022-09-09T16:59:12;20.60;74.40
47252;DHT22;32991;51.374;11.586;2022-09-09T17:01:42;20.50;74.50
47252;DHT22;32991;51.374;11.586;2022-09-09T17:04:15;20.50;75.00
47252;DHT22;32991;51.374;11.586;2022-09-09T17:06:48;20.40;75.30
47252;DHT22;32991;51.374;11.586;2022-09-09T17:09:16;20.40;75.60
47252;DHT22;32991;51.374;11.586;2022-09-09T17:11:43;20.30;76.00
47252;DHT22;32991;51.374;11.586;2022-09-09T17:14:15;20.20;76.30
47252;DHT22;32991;51.374;11.586;2022-09-09T17:16:42;20.10;76.70
47252;DHT22;32991;51.374;11.586;2022-09-09T17:19:09;20.00;76.90
47252;DHT22;32991;51.374;11.586;2022-09-09T17:21:36;19.90;77.50
47252;DHT22;32991;51.374;11.586;2022-09-09T17:24:27;19.80;77.90
47252;DHT22;32991;51.374;11.586;2022-09-09T17:26:55;19.70;78.40
47252;DHT22;32991;51.374;11.586;2022-09-09T17:29:22;19.60;78.70